createdAt,value
2023-05-17T00:01:16.164Z,97299.66
2023-05-17T00:04:18.945Z,97298.03
2023-05-17T00:07:21.816Z,97305.38
2023-05-17T00:10:24.637Z,97307.47
2023-05-17T00:13:27.394Z,97311.19
2023-05-17T00:16:30.165Z,97306.84
2023-05-17T00:19:32.975Z,97313.56
2023-05-17T00:22:35.787Z,97315.84
2023-05-17T00:25:38.573Z,97308.31
2023-05-17T00:28:45.075Z,97306.13
2023-05-17T00:31:50.129Z,97302.41
2023-05-17T00:34:53.169Z,97301.69
2023-05-17T00:37:58.587Z,97293.22
2023-05-17T00:41:01.415Z,97300.03
2023-05-17T00:44:04.431Z,97290.22
2023-05-17T00:47:07.434Z,97295.59
2023-05-17T00:50:12.213Z,97289.16
2023-05-17T00:53:16.824Z,97285.41
2023-05-17T00:56:19.693Z,97297.25
2023-05-17T00:59:24.550Z,97286.97
2023-05-17T01:02:27.464Z,97295.88
2023-05-17T01:05:32.455Z,97288.63
2023-05-17T01:08:35.310Z,97288.81
2023-05-17T01:11:56.846Z,97276.72
2023-05-17T01:15:28.164Z,97287.25
2023-05-17T01:18:41.818Z,97292.97
2023-05-17T01:22:40.544Z,97294.16
2023-05-17T01:25:55.336Z,97292.63
2023-05-17T01:29:00.261Z,97286.44
2023-05-17T01:32:03.629Z,97293.06
2023-05-17T01:35:06.881Z,97288.72
2023-05-17T01:38:11.244Z,97276.25
2023-05-17T01:41:19.897Z,97281.00
2023-05-17T01:44:22.654Z,97288.91
2023-05-17T01:47:35.153Z,97298.72
2023-05-17T01:50:39.079Z,97289.25
2023-05-17T01:53:50.206Z,97294.72
2023-05-17T01:56:58.856Z,97297.72
2023-05-17T02:00:07.430Z,97299.97
2023-05-17T02:03:21.023Z,97308.97
2023-05-17T02:06:28.420Z,97307.16
2023-05-17T02:09:31.274Z,97319.78
2023-05-17T02:12:34.365Z,97319.16
2023-05-17T02:15:37.317Z,97322.34
2023-05-17T02:18:41.954Z,97320.03
2023-05-17T02:21:44.972Z,97325.13
2023-05-17T02:24:48.616Z,97320.50
2023-05-17T02:27:51.842Z,97331.22
2023-05-17T02:30:55.116Z,97345.72
2023-05-17T02:33:57.948Z,97351.38
2023-05-17T02:37:00.991Z,97349.00
2023-05-17T02:40:09.070Z,97342.06
2023-05-17T02:43:12.113Z,97368.84
2023-05-17T02:46:15.156Z,97371.75
2023-05-17T02:49:22.319Z,97388.00
2023-05-17T02:52:25.862Z,97380.94
2023-05-17T02:55:28.890Z,97404.44
2023-05-17T02:58:32.090Z,97395.63
2023-05-17T03:01:35.044Z,97395.75
2023-05-17T03:04:39.060Z,97400.00
2023-05-17T03:07:41.938Z,97414.34
2023-05-17T03:10:44.751Z,97416.97
2023-05-17T03:13:51.875Z,97409.41
2023-05-17T03:17:00.481Z,97415.22
2023-05-17T03:20:04.851Z,97412.03
2023-05-17T03:23:07.863Z,97411.00
2023-05-17T03:26:17.369Z,97418.44
2023-05-17T03:29:24.767Z,97423.19
2023-05-17T03:32:27.459Z,97426.44
2023-05-17T03:35:30.317Z,97432.03
2023-05-17T03:38:35.213Z,97448.19
2023-05-17T03:41:38.190Z,97433.28
2023-05-17T03:44:41.674Z,97436.09
2023-05-17T03:47:44.911Z,97443.09
2023-05-17T03:50:48.331Z,97427.81
2023-05-17T03:53:58.739Z,97445.75
2023-05-17T03:57:02.181Z,97442.44
2023-05-17T04:00:21.979Z,97456.84
2023-05-17T04:03:24.814Z,97451.25
2023-05-17T04:06:27.686Z,97450.88
2023-05-17T04:09:32.502Z,97466.22
2023-05-17T04:12:35.942Z,97473.47
2023-05-17T04:15:38.657Z,97481.22
2023-05-17T04:18:43.693Z,97479.66
2023-05-17T04:21:47.398Z,97483.94
2023-05-17T04:24:50.680Z,97486.97
2023-05-17T04:27:56.178Z,97493.81
2023-05-17T04:30:59.376Z,97500.94
2023-05-17T04:34:03.049Z,97513.06
2023-05-17T04:37:06.552Z,97505.69
2023-05-17T04:40:12.073Z,97511.59
2023-05-17T04:43:15.289Z,97495.19
2023-05-17T04:46:18.324Z,97507.59
2023-05-17T04:49:21.163Z,97516.94
2023-05-17T04:52:24.132Z,97517.63
2023-05-17T04:55:27.224Z,97522.66
2023-05-17T04:58:30.767Z,97533.34
2023-05-17T05:01:35.941Z,97540.78
2023-05-17T05:04:38.988Z,97532.16
2023-05-17T05:07:42.293Z,97547.25
2023-05-17T05:10:46.912Z,97545.06
2023-05-17T05:13:52.538Z,97538.94
2023-05-17T05:16:56.164Z,97534.03
2023-05-17T05:19:59.621Z,97533.41
2023-05-17T05:23:06.350Z,97533.75
2023-05-17T05:26:10.230Z,97517.66
2023-05-17T05:29:13.220Z,97531.81
2023-05-17T05:32:17.698Z,97551.50
2023-05-17T05:35:29.784Z,97557.41
2023-05-17T05:38:33.891Z,97560.34
2023-05-17T05:41:37.274Z,97576.13
2023-05-17T05:44:40.099Z,97589.25
2023-05-17T05:47:45.128Z,97596.84
2023-05-17T05:50:48.251Z,97600.78
2023-05-17T05:53:51.617Z,97595.19
2023-05-17T05:56:55.772Z,97588.66
2023-05-17T05:59:58.735Z,97592.31
2023-05-17T06:03:01.870Z,97605.59
2023-05-17T06:06:05.277Z,97603.13
2023-05-17T06:09:08.129Z,97608.72
2023-05-17T06:12:11.103Z,97618.25
2023-05-17T06:15:14.172Z,97613.50
2023-05-17T06:18:17.078Z,97620.06
2023-05-17T06:21:20.090Z,97611.81
2023-05-17T06:24:22.885Z,97628.63
2023-05-17T06:27:28.085Z,97626.78
2023-05-17T06:30:31.565Z,97632.53
2023-05-17T06:33:34.815Z,97641.75
2023-05-17T06:36:38.599Z,97650.13
2023-05-17T06:39:42.598Z,97660.81
2023-05-17T06:42:47.949Z,97667.41
2023-05-17T06:45:51.288Z,97662.66
2023-05-17T06:48:54.396Z,97677.13
2023-05-17T06:52:03.650Z,97681.06
2023-05-17T06:55:10.884Z,97677.94
2023-05-17T06:58:13.849Z,97675.28
2023-05-17T07:01:17.642Z,97675.47
2023-05-17T07:04:21.294Z,97675.13
2023-05-17T07:07:24.213Z,97687.63
2023-05-17T07:10:27.279Z,97695.84
2023-05-17T07:13:32.315Z,97696.19
2023-05-17T07:16:35.054Z,97700.44
2023-05-17T07:19:37.855Z,97687.44
2023-05-17T07:22:40.897Z,97695.81
2023-05-17T07:25:43.625Z,97714.09
2023-05-17T07:28:46.665Z,97714.25
2023-05-17T07:31:49.688Z,97720.66
2023-05-17T07:34:52.592Z,97708.81
2023-05-17T07:37:55.679Z,97715.25
2023-05-17T07:40:58.521Z,97731.03
2023-05-17T07:44:01.261Z,97715.22
2023-05-17T07:47:04.198Z,97712.63
2023-05-17T07:50:07.744Z,97729.69
2023-05-17T07:53:10.897Z,97725.44
2023-05-17T07:56:13.698Z,97733.97
2023-05-17T07:59:16.581Z,97726.69
2023-05-17T08:02:19.502Z,97734.25
2023-05-17T08:05:22.460Z,97729.00
2023-05-17T08:08:25.538Z,97731.09
2023-05-17T08:11:28.989Z,97713.91
2023-05-17T08:14:33.986Z,97738.16
2023-05-17T08:17:36.964Z,97733.59
2023-05-17T08:20:39.938Z,97725.56
2023-05-17T08:23:42.717Z,97750.03
2023-05-17T08:26:45.492Z,97752.66
2023-05-17T08:29:48.315Z,97750.50
2023-05-17T08:32:51.482Z,97752.16
2023-05-17T08:35:55.699Z,97755.97
2023-05-17T08:38:58.565Z,97756.78
2023-05-17T08:42:02.864Z,97760.25
2023-05-17T08:45:06.978Z,97758.25
2023-05-17T08:48:10.258Z,97768.13
2023-05-17T08:51:13.381Z,97772.03
2023-05-17T08:54:16.106Z,97782.91
2023-05-17T08:57:19.264Z,97777.78
2023-05-17T09:00:22.684Z,97774.84
2023-05-17T09:03:26.738Z,97780.28
2023-05-17T09:06:30.803Z,97781.22
2023-05-17T09:09:34.464Z,97795.06
2023-05-17T09:12:37.533Z,97780.91
2023-05-17T09:15:43.409Z,97804.28
2023-05-17T09:18:54.427Z,97796.91
2023-05-17T09:22:00.710Z,97811.81
2023-05-17T09:25:05.014Z,97824.34
2023-05-17T09:28:12.257Z,97826.97
2023-05-17T09:31:17.528Z,97832.22
2023-05-17T09:34:24.152Z,97832.53
2023-05-17T09:37:27.155Z,97839.13
2023-05-17T09:40:30.026Z,97835.16
2023-05-17T09:43:32.991Z,97828.41
2023-05-17T09:46:36.834Z,97832.06
2023-05-17T09:49:39.675Z,97835.88
2023-05-17T09:52:42.456Z,97834.16
2023-05-17T09:55:49.220Z,97849.56
2023-05-17T09:58:52.065Z,97862.13
2023-05-17T10:01:55.455Z,97872.66
2023-05-17T10:04:58.945Z,97875.63
2023-05-17T10:08:02.281Z,97885.56
2023-05-17T10:11:12.073Z,97868.97
2023-05-17T10:14:28.290Z,97895.25
2023-05-17T10:17:32.013Z,97897.13
2023-05-17T10:20:35.053Z,97897.94
2023-05-17T10:23:39.413Z,97906.28
2023-05-17T10:26:42.925Z,97909.38
2023-05-17T10:29:47.642Z,97932.34
2023-05-17T10:32:53.171Z,97935.22
2023-05-17T10:35:56.515Z,97931.78
2023-05-17T10:39:00.205Z,97946.94
2023-05-17T10:42:14.185Z,97949.63
2023-05-17T10:45:17.602Z,97944.31
2023-05-17T10:48:20.605Z,97951.41
2023-05-17T10:51:25.189Z,97944.06
2023-05-17T10:54:39.632Z,97928.44
2023-05-17T10:57:51.208Z,97931.66
2023-05-17T11:00:55.854Z,97911.06
2023-05-17T11:03:59.389Z,97921.03
2023-05-17T11:07:17.703Z,97902.63
2023-05-17T11:10:20.788Z,97921.19
2023-05-17T11:13:26.562Z,97921.81
2023-05-17T11:16:36.691Z,97908.91
2023-05-17T11:19:39.940Z,97918.19
2023-05-17T11:22:43.644Z,97926.41
2023-05-17T11:25:48.481Z,97919.88
2023-05-17T11:29:03.310Z,97927.09
2023-05-17T11:32:08.346Z,97921.44
2023-05-17T11:35:13.000Z,97921.22
2023-05-17T11:38:24.813Z,97924.81
2023-05-17T11:41:27.957Z,97923.22
2023-05-17T11:44:32.042Z,97918.06
2023-05-17T11:47:39.567Z,97922.63
2023-05-17T11:50:43.507Z,97918.56
2023-05-17T11:53:47.912Z,97924.84
2023-05-17T11:56:51.047Z,97925.44
2023-05-17T12:00:00.220Z,97927.53
2023-05-17T12:03:37.777Z,97922.28
2023-05-17T12:06:40.812Z,97935.09
2023-05-17T12:09:45.699Z,97906.84
2023-05-17T12:12:48.953Z,97916.47
2023-05-17T12:16:00.574Z,97922.09
2023-05-17T12:19:03.905Z,97922.84
2023-05-17T12:22:14.315Z,97919.41
2023-05-17T12:25:20.966Z,97923.31
2023-05-17T12:28:25.068Z,97919.88
2023-05-17T12:31:38.877Z,97933.13
2023-05-17T12:34:42.314Z,97924.94
2023-05-17T12:37:45.387Z,97937.78
2023-05-17T12:40:50.826Z,97927.50
2023-05-17T12:44:06.260Z,97931.69
2023-05-17T12:47:16.228Z,97929.38
2023-05-17T12:50:39.698Z,97936.75
2023-05-17T12:53:44.388Z,97958.69
2023-05-17T12:56:47.438Z,97952.06
2023-05-17T12:59:53.267Z,97945.25
2023-05-17T13:02:58.951Z,97936.69
2023-05-17T13:06:04.783Z,97956.56
2023-05-17T13:09:07.942Z,97956.50
2023-05-17T13:12:11.251Z,97962.97
2023-05-17T13:15:15.603Z,97953.22
2023-05-17T13:18:19.800Z,97948.41
2023-05-17T13:21:24.804Z,97941.94
2023-05-17T13:24:30.755Z,97965.75
2023-05-17T13:27:33.946Z,97958.28
2023-05-17T13:30:38.111Z,97954.31
2023-05-17T13:33:42.435Z,97966.47
2023-05-17T13:36:45.458Z,97960.22
2023-05-17T13:39:48.734Z,97967.22
2023-05-17T13:42:51.728Z,97960.56
2023-05-17T13:45:59.246Z,97961.69
2023-05-17T13:49:05.009Z,97952.53
2023-05-17T13:52:13.650Z,97963.84
2023-05-17T13:55:16.500Z,97947.91
2023-05-17T13:58:22.185Z,97972.47
2023-05-17T14:01:25.471Z,97954.56
2023-05-17T14:04:28.502Z,97971.13
2023-05-17T14:07:31.574Z,97973.50
2023-05-17T14:10:34.641Z,97988.19
2023-05-17T14:13:37.837Z,97977.91
2023-05-17T14:16:41.698Z,97980.44
2023-05-17T14:19:44.633Z,97994.69
2023-05-17T14:22:49.050Z,97985.97
2023-05-17T14:25:52.037Z,97994.34
2023-05-17T14:28:55.304Z,97998.94
2023-05-17T14:31:58.496Z,98010.59
2023-05-17T14:35:01.537Z,98015.41
2023-05-17T14:38:04.746Z,98022.63
2023-05-17T14:41:08.119Z,98039.13
2023-05-17T14:44:11.277Z,98036.19
2023-05-17T14:47:14.531Z,98055.75
2023-05-17T14:50:17.717Z,98058.22
2023-05-17T14:53:20.715Z,98064.47
2023-05-17T14:56:24.287Z,98077.63
2023-05-17T14:59:27.843Z,98082.00
2023-05-17T15:02:30.815Z,98091.19
2023-05-17T15:05:35.980Z,98094.41
2023-05-17T15:08:40.033Z,98096.84
2023-05-17T15:11:42.937Z,98098.31
2023-05-17T15:14:47.204Z,98105.41
2023-05-17T15:17:53.527Z,98108.72
2023-05-17T15:20:56.576Z,98101.81
2023-05-17T15:23:59.470Z,98101.34
2023-05-17T15:27:02.651Z,98108.19
2023-05-17T15:30:06.297Z,98100.31
2023-05-17T15:33:09.825Z,98119.44
2023-05-17T15:36:14.247Z,98127.59
2023-05-17T15:39:17.115Z,98120.28
2023-05-17T15:42:20.038Z,98124.28
2023-05-17T15:45:23.084Z,98122.25
2023-05-17T15:48:29.929Z,98137.31
2023-05-17T15:51:32.944Z,98143.69
2023-05-17T15:54:36.195Z,98134.53
2023-05-17T15:57:39.092Z,98132.69
2023-05-17T16:00:42.244Z,98150.56
2023-05-17T16:03:45.527Z,98139.97
2023-05-17T16:06:48.470Z,98149.50
2023-05-17T16:09:51.341Z,98131.69
2023-05-17T16:12:54.340Z,98139.72
2023-05-17T16:15:58.586Z,98155.16
2023-05-17T16:19:01.953Z,98157.66
2023-05-17T16:22:05.173Z,98170.81
2023-05-17T16:25:08.117Z,98173.28
2023-05-17T16:28:10.885Z,98183.19
2023-05-17T16:31:13.872Z,98187.38
2023-05-17T16:34:17.247Z,98181.31
2023-05-17T16:37:20.219Z,98195.41
2023-05-17T16:40:23.410Z,98185.22
2023-05-17T16:43:26.802Z,98198.06
2023-05-17T16:46:29.821Z,98211.88
2023-05-17T16:49:32.840Z,98213.50
2023-05-17T16:52:39.065Z,98228.00
2023-05-17T16:55:42.752Z,98208.00
2023-05-17T16:58:46.107Z,98203.75
2023-05-17T17:01:49.145Z,98199.31
2023-05-17T17:04:52.624Z,98205.66
2023-05-17T17:07:55.586Z,98206.19
2023-05-17T17:10:58.437Z,98211.72
2023-05-17T17:14:01.210Z,98214.75
2023-05-17T17:17:04.317Z,98213.63
2023-05-17T17:20:09.493Z,98220.56
2023-05-17T17:23:12.961Z,98231.72
2023-05-17T17:26:16.376Z,98225.78
2023-05-17T17:29:19.263Z,98242.56
2023-05-17T17:32:22.467Z,98241.22
2023-05-17T17:35:25.344Z,98248.09
2023-05-17T17:38:28.183Z,98248.13
2023-05-17T17:41:33.854Z,98243.13
2023-05-17T17:44:37.059Z,98246.47
2023-05-17T17:47:42.547Z,98245.19
2023-05-17T17:50:45.795Z,98230.16
2023-05-17T17:53:49.529Z,98249.31
2023-05-17T17:56:52.960Z,98245.19
2023-05-17T17:59:57.115Z,98259.34
2023-05-17T18:03:00.388Z,98238.91
2023-05-17T18:06:05.216Z,98245.84
2023-05-17T18:09:08.973Z,98255.97
2023-05-17T18:12:12.169Z,98255.19
2023-05-17T18:15:15.678Z,98245.28
2023-05-17T18:18:18.746Z,98273.31
2023-05-17T18:21:22.068Z,98265.38
2023-05-17T18:24:25.010Z,98261.00
2023-05-17T18:27:27.901Z,98263.16
2023-05-17T18:30:31.469Z,98270.88
2023-05-17T18:33:35.384Z,98269.66
2023-05-17T18:36:38.534Z,98265.94
2023-05-17T18:39:44.154Z,98281.66
2023-05-17T18:42:47.508Z,98267.34
2023-05-17T18:45:51.547Z,98276.69
2023-05-17T18:48:54.559Z,98290.88
2023-05-17T18:51:57.560Z,98302.00
2023-05-17T18:55:00.544Z,98304.78
2023-05-17T18:58:03.725Z,98289.94
2023-05-17T19:01:06.941Z,98282.59
2023-05-17T19:04:10.225Z,98287.41
2023-05-17T19:07:13.139Z,98297.38
2023-05-17T19:10:16.206Z,98303.38
2023-05-17T19:13:19.331Z,98290.31
2023-05-17T19:16:22.243Z,98296.22
2023-05-17T19:19:26.363Z,98280.00
2023-05-17T19:22:29.809Z,98289.25
2023-05-17T19:25:32.830Z,98298.81
2023-05-17T19:28:36.472Z,98270.88
2023-05-17T19:31:39.470Z,98304.16
2023-05-17T19:34:42.625Z,98293.50
2023-05-17T19:37:45.554Z,98304.25
2023-05-17T19:40:48.757Z,98307.28
2023-05-17T19:43:52.072Z,98302.91
2023-05-17T19:46:55.166Z,98310.47
2023-05-17T19:49:58.199Z,98305.94
2023-05-17T19:53:01.985Z,98319.56
2023-05-17T19:56:08.644Z,98308.13
2023-05-17T19:59:11.627Z,98313.41
2023-05-17T20:02:14.588Z,98316.72
2023-05-17T20:05:17.810Z,98324.16
2023-05-17T20:08:21.555Z,98330.84
2023-05-17T20:11:24.660Z,98320.56
2023-05-17T20:14:28.048Z,98328.00
2023-05-17T20:17:31.061Z,98323.91
2023-05-17T20:20:34.163Z,98337.13
2023-05-17T20:23:36.972Z,98338.22
2023-05-17T20:26:40.091Z,98339.03
2023-05-17T20:29:42.865Z,98324.31
2023-05-17T20:32:45.976Z,98338.88
2023-05-17T20:35:48.725Z,98331.03
2023-05-17T20:38:51.862Z,98333.25
2023-05-17T20:41:55.802Z,98331.59
2023-05-17T20:45:06.541Z,98333.38
2023-05-17T20:48:09.678Z,98332.94
2023-05-17T20:51:13.092Z,98328.53
2023-05-17T20:54:16.184Z,98335.47
2023-05-17T20:57:19.828Z,98346.22
2023-05-17T21:00:22.855Z,98326.34
2023-05-17T21:03:28.387Z,98335.56
2023-05-17T21:06:32.827Z,98324.59
2023-05-17T21:09:35.848Z,98330.53
2023-05-17T21:12:39.083Z,98332.47
2023-05-17T21:15:42.418Z,98338.97
2023-05-17T21:18:45.490Z,98347.59
2023-05-17T21:21:48.513Z,98341.56
2023-05-17T21:24:52.935Z,98333.28
2023-05-17T21:27:56.007Z,98347.53
2023-05-17T21:30:59.124Z,98348.44
2023-05-17T21:34:02.109Z,98348.19
2023-05-17T21:37:05.274Z,98331.94
2023-05-17T21:40:09.459Z,98336.94
2023-05-17T21:43:12.897Z,98339.00
2023-05-17T21:46:16.002Z,98344.91
2023-05-17T21:49:18.935Z,98321.22
2023-05-17T21:52:21.944Z,98333.88
2023-05-17T21:55:24.908Z,98325.19
2023-05-17T21:58:28.051Z,98330.88
2023-05-17T22:01:31.222Z,98331.03
2023-05-17T22:04:34.163Z,98323.44
2023-05-17T22:07:37.363Z,98328.66
2023-05-17T22:10:40.865Z,98333.22
2023-05-17T22:13:43.579Z,98326.34
2023-05-17T22:16:47.394Z,98321.78
2023-05-17T22:19:50.550Z,98315.28
2023-05-17T22:22:53.522Z,98309.13
2023-05-17T22:25:57.884Z,98303.72
2023-05-17T22:29:00.821Z,98303.03
2023-05-17T22:32:03.824Z,98310.50
2023-05-17T22:35:07.075Z,98311.31
2023-05-17T22:38:09.922Z,98315.47
2023-05-17T22:41:13.581Z,98314.63
2023-05-17T22:44:16.840Z,98322.50
2023-05-17T22:47:23.263Z,98320.97
2023-05-17T22:50:31.088Z,98320.81
2023-05-17T22:53:33.970Z,98314.63
2023-05-17T22:56:37.951Z,98316.09
2023-05-17T22:59:44.297Z,98334.19
2023-05-17T23:02:47.248Z,98333.50
2023-05-17T23:05:51.971Z,98323.16
2023-05-17T23:08:55.317Z,98321.78
2023-05-17T23:12:00.689Z,98327.81
2023-05-17T23:15:08.468Z,98323.69
2023-05-17T23:18:12.156Z,98322.31
2023-05-17T23:21:14.965Z,98319.00
2023-05-17T23:24:18.001Z,98324.84
2023-05-17T23:27:22.532Z,98315.19
2023-05-17T23:30:25.428Z,98319.00
2023-05-17T23:33:31.669Z,98316.53
2023-05-17T23:36:34.541Z,98330.38
2023-05-17T23:39:37.782Z,98320.69
2023-05-17T23:42:41.942Z,98314.38
2023-05-17T23:45:44.974Z,98317.91
2023-05-17T23:48:50.748Z,98315.56
2023-05-17T23:51:53.822Z,98316.53
2023-05-17T23:54:59.873Z,98312.00
2023-05-17T23:58:02.775Z,98319.44
